sensor_id;sensor_type;location;lat;lon;timestamp;P1;durP1;ratioP1;P2;durP2;ratioP2
16731;SDS011;8484;50.904;9.192;2022-09-28T00:00:19;3.63;;;3.00;;
16731;SDS011;8484;50.904;9.192;2022-09-28T00:02:46;3.53;;;3.23;;
16731;SDS011;8484;50.904;9.192;2022-09-28T00:05:13;3.80;;;3.40;;
16731;SDS011;8484;50.904;9.192;2022-09-28T00:07:42;3.70;;;3.40;;
16731;SDS011;8484;50.904;9.192;2022-09-28T00:10:09;3.63;;;3.33;;
16731;SDS011;8484;50.904;9.192;2022-09-28T00:12:36;4.10;;;3.70;;
16731;SDS011;8484;50.904;9.192;2022-09-28T00:15:03;4.10;;;3.60;;
16731;SDS011;8484;50.904;9.192;2022-09-28T00:17:32;3.73;;;3.30;;
16731;SDS011;8484;50.904;9.192;2022-09-28T00:20:00;5.67;;;3.50;;
16731;SDS011;8484;50.904;9.192;2022-09-28T00:22:29;7.27;;;3.50;;
16731;SDS011;8484;50.904;9.192;2022-09-28T00:24:57;4.17;;;3.40;;
16731;SDS011;8484;50.904;9.192;2022-09-28T00:27:24;4.10;;;3.70;;
16731;SDS011;8484;50.904;9.192;2022-09-28T00:29:51;6.40;;;3.70;;
16731;SDS011;8484;50.904;9.192;2022-09-28T00:32:19;4.73;;;4.00;;
16731;SDS011;8484;50.904;9.192;2022-09-28T00:34:48;4.23;;;3.83;;
16731;SDS011;8484;50.904;9.192;2022-09-28T00:37:17;4.73;;;3.53;;
16731;SDS011;8484;50.904;9.192;2022-09-28T00:39:45;3.77;;;3.37;;
16731;SDS011;8484;50.904;9.192;2022-09-28T00:42:15;4.70;;;3.30;;
16731;SDS011;8484;50.904;9.192;2022-09-28T00:44:46;3.87;;;3.47;;
16731;SDS011;8484;50.904;9.192;2022-09-28T00:47:16;3.50;;;3.20;;
16731;SDS011;8484;50.904;9.192;2022-09-28T00:50:00;5.10;;;3.73;;
16731;SDS011;8484;50.904;9.192;2022-09-28T00:52:32;3.60;;;3.30;;
16731;SDS011;8484;50.904;9.192;2022-09-28T00:55:04;3.90;;;3.60;;
16731;SDS011;8484;50.904;9.192;2022-09-28T00:57:36;4.37;;;3.60;;
16731;SDS011;8484;50.904;9.192;2022-09-28T01:00:05;4.93;;;3.90;;
16731;SDS011;8484;50.904;9.192;2022-09-28T01:02:32;4.07;;;3.37;;
16731;SDS011;8484;50.904;9.192;2022-09-28T01:04:59;4.90;;;3.10;;
16731;SDS011;8484;50.904;9.192;2022-09-28T01:07:28;4.53;;;3.20;;
16731;SDS011;8484;50.904;9.192;2022-09-28T01:09:57;4.60;;;3.30;;
16731;SDS011;8484;50.904;9.192;2022-09-28T01:12:24;7.20;;;3.20;;
16731;SDS011;8484;50.904;9.192;2022-09-28T01:14:52;5.83;;;3.80;;
16731;SDS011;8484;50.904;9.192;2022-09-28T01:17:20;5.23;;;3.40;;
16731;SDS011;8484;50.904;9.192;2022-09-28T01:25:58;5.17;;;3.80;;
16731;SDS011;8484;50.904;9.192;2022-09-28T01:28:48;4.30;;;3.90;;
16731;SDS011;8484;50.904;9.192;2022-09-28T01:31:22;5.20;;;4.03;;
16731;SDS011;8484;50.904;9.192;2022-09-28T01:33:56;5.47;;;4.33;;
16731;SDS011;8484;50.904;9.192;2022-09-28T01:36:26;4.20;;;3.30;;
16731;SDS011;8484;50.904;9.192;2022-09-28T01:38:58;3.50;;;3.20;;
16731;SDS011;8484;50.904;9.192;2022-09-28T01:41:27;7.40;;;3.03;;
16731;SDS011;8484;50.904;9.192;2022-09-28T01:43:58;3.00;;;2.70;;
16731;SDS011;8484;50.904;9.192;2022-09-28T01:46:29;5.27;;;2.77;;
16731;SDS011;8484;50.904;9.192;2022-09-28T01:49:02;3.33;;;2.93;;
16731;SDS011;8484;50.904;9.192;2022-09-28T01:51:34;4.27;;;2.50;;
16731;SDS011;8484;50.904;9.192;2022-09-28T01:54:05;2.90;;;2.57;;
16731;SDS011;8484;50.904;9.192;2022-09-28T01:56:37;2.50;;;2.10;;
16731;SDS011;8484;50.904;9.192;2022-09-28T01:59:12;2.30;;;2.10;;
16731;SDS011;8484;50.904;9.192;2022-09-28T02:01:42;1.83;;;1.73;;
16731;SDS011;8484;50.904;9.192;2022-09-28T02:04:15;2.30;;;1.60;;
16731;SDS011;8484;50.904;9.192;2022-09-28T02:06:45;1.77;;;1.40;;
16731;SDS011;8484;50.904;9.192;2022-09-28T02:09:17;3.33;;;1.33;;
16731;SDS011;8484;50.904;9.192;2022-09-28T02:11:48;1.20;;;0.93;;
16731;SDS011;8484;50.904;9.192;2022-09-28T02:14:19;1.27;;;1.03;;
16731;SDS011;8484;50.904;9.192;2022-09-28T02:16:47;1.10;;;1.00;;
16731;SDS011;8484;50.904;9.192;2022-09-28T02:19:16;0.87;;;0.87;;
16731;SDS011;8484;50.904;9.192;2022-09-28T02:21:46;1.27;;;0.97;;
16731;SDS011;8484;50.904;9.192;2022-09-28T02:24:21;1.10;;;1.00;;
16731;SDS011;8484;50.904;9.192;2022-09-28T02:26:52;1.70;;;1.00;;
16731;SDS011;8484;50.904;9.192;2022-09-28T02:29:24;1.63;;;1.30;;
16731;SDS011;8484;50.904;9.192;2022-09-28T02:31:51;1.77;;;1.10;;
16731;SDS011;8484;50.904;9.192;2022-09-28T02:34:17;1.20;;;1.00;;
16731;SDS011;8484;50.904;9.192;2022-09-28T02:36:45;1.03;;;1.00;;
16731;SDS011;8484;50.904;9.192;2022-09-28T02:39:12;1.00;;;1.00;;
16731;SDS011;8484;50.904;9.192;2022-09-28T02:41:44;1.50;;;0.90;;
16731;SDS011;8484;50.904;9.192;2022-09-28T02:44:28;0.93;;;0.83;;
16731;SDS011;8484;50.904;9.192;2022-09-28T02:47:09;0.80;;;0.80;;
16731;SDS011;8484;50.904;9.192;2022-09-28T02:49:44;0.80;;;0.80;;
16731;SDS011;8484;50.904;9.192;2022-09-28T02:52:23;1.83;;;0.90;;
16731;SDS011;8484;50.904;9.192;2022-09-28T02:55:23;1.13;;;0.80;;
16731;SDS011;8484;50.904;9.192;2022-09-28T02:58:05;1.27;;;1.00;;
16731;SDS011;8484;50.904;9.192;2022-09-28T03:00:47;1.03;;;0.90;;
16731;SDS011;8484;50.904;9.192;2022-09-28T03:03:22;2.03;;;0.90;;
16731;SDS011;8484;50.904;9.192;2022-09-28T03:05:56;1.07;;;0.93;;
16731;SDS011;8484;50.904;9.192;2022-09-28T03:08:28;1.27;;;0.90;;
16731;SDS011;8484;50.904;9.192;2022-09-28T03:10:59;1.70;;;1.10;;
16731;SDS011;8484;50.904;9.192;2022-09-28T03:13:29;1.60;;;1.07;;
16731;SDS011;8484;50.904;9.192;2022-09-28T03:16:11;1.80;;;1.00;;
16731;SDS011;8484;50.904;9.192;2022-09-28T03:18:39;2.33;;;0.87;;
16731;SDS011;8484;50.904;9.192;2022-09-28T03:21:07;2.23;;;1.30;;
16731;SDS011;8484;50.904;9.192;2022-09-28T03:23:35;1.07;;;0.97;;
16731;SDS011;8484;50.904;9.192;2022-09-28T03:26:02;2.07;;;1.20;;
16731;SDS011;8484;50.904;9.192;2022-09-28T03:28:29;2.07;;;1.00;;
16731;SDS011;8484;50.904;9.192;2022-09-28T03:30:57;1.83;;;1.10;;
16731;SDS011;8484;50.904;9.192;2022-09-28T03:33:25;1.50;;;1.40;;
16731;SDS011;8484;50.904;9.192;2022-09-28T03:35:52;1.70;;;1.53;;
16731;SDS011;8484;50.904;9.192;2022-09-28T03:38:19;1.57;;;1.47;;
16731;SDS011;8484;50.904;9.192;2022-09-28T03:40:51;1.60;;;1.50;;
16731;SDS011;8484;50.904;9.192;2022-09-28T03:43:18;1.40;;;1.30;;
16731;SDS011;8484;50.904;9.192;2022-09-28T03:45:50;2.93;;;1.40;;
16731;SDS011;8484;50.904;9.192;2022-09-28T03:48:19;3.03;;;1.77;;
16731;SDS011;8484;50.904;9.192;2022-09-28T03:50:50;3.40;;;1.73;;
16731;SDS011;8484;50.904;9.192;2022-09-28T03:53:18;2.93;;;2.20;;
16731;SDS011;8484;50.904;9.192;2022-09-28T03:55:45;2.57;;;2.10;;
16731;SDS011;8484;50.904;9.192;2022-09-28T03:58:12;2.50;;;2.00;;
16731;SDS011;8484;50.904;9.192;2022-09-28T04:00:39;2.50;;;2.10;;
16731;SDS011;8484;50.904;9.192;2022-09-28T04:03:06;2.63;;;2.23;;
16731;SDS011;8484;50.904;9.192;2022-09-28T04:05:33;2.33;;;2.13;;
16731;SDS011;8484;50.904;9.192;2022-09-28T04:08:01;3.07;;;2.53;;
16731;SDS011;8484;50.904;9.192;2022-09-28T04:10:28;3.10;;;2.67;;
16731;SDS011;8484;50.904;9.192;2022-09-28T04:12:55;2.80;;;2.60;;
16731;SDS011;8484;50.904;9.192;2022-09-28T04:15:22;3.57;;;3.00;;
16731;SDS011;8484;50.904;9.192;2022-09-28T04:17:50;3.00;;;2.80;;
16731;SDS011;8484;50.904;9.192;2022-09-28T04:20:17;2.73;;;2.53;;
16731;SDS011;8484;50.904;9.192;2022-09-28T04:22:44;3.00;;;2.80;;
16731;SDS011;8484;50.904;9.192;2022-09-28T04:25:12;5.20;;;3.20;;
16731;SDS011;8484;50.904;9.192;2022-09-28T04:27:39;3.23;;;2.93;;
16731;SDS011;8484;50.904;9.192;2022-09-28T04:30:23;4.03;;;3.03;;
16731;SDS011;8484;50.904;9.192;2022-09-28T04:32:50;3.33;;;3.03;;
16731;SDS011;8484;50.904;9.192;2022-09-28T04:35:17;3.03;;;2.77;;
16731;SDS011;8484;50.904;9.192;2022-09-28T04:37:44;3.63;;;3.30;;
16731;SDS011;8484;50.904;9.192;2022-09-28T04:40:15;3.90;;;3.20;;
16731;SDS011;8484;50.904;9.192;2022-09-28T04:42:42;5.00;;;3.07;;
16731;SDS011;8484;50.904;9.192;2022-09-28T04:45:09;3.40;;;3.10;;
16731;SDS011;8484;50.904;9.192;2022-09-28T04:47:36;3.60;;;3.30;;
16731;SDS011;8484;50.904;9.192;2022-09-28T04:50:03;3.70;;;3.40;;
16731;SDS011;8484;50.904;9.192;2022-09-28T04:52:30;3.87;;;3.57;;
16731;SDS011;8484;50.904;9.192;2022-09-28T04:54:57;3.87;;;3.50;;
16731;SDS011;8484;50.904;9.192;2022-09-28T04:57:25;3.53;;;3.23;;
16731;SDS011;8484;50.904;9.192;2022-09-28T04:59:52;4.03;;;3.63;;
16731;SDS011;8484;50.904;9.192;2022-09-28T05:02:19;4.37;;;3.80;;
16731;SDS011;8484;50.904;9.192;2022-09-28T05:04:45;5.43;;;3.77;;
16731;SDS011;8484;50.904;9.192;2022-09-28T05:07:12;5.30;;;3.60;;
16731;SDS011;8484;50.904;9.192;2022-09-28T05:09:39;5.17;;;3.40;;
16731;SDS011;8484;50.904;9.192;2022-09-28T05:12:07;4.30;;;3.90;;
16731;SDS011;8484;50.904;9.192;2022-09-28T05:14:35;4.30;;;3.90;;
16731;SDS011;8484;50.904;9.192;2022-09-28T05:17:02;6.63;;;4.13;;
16731;SDS011;8484;50.904;9.192;2022-09-28T05:19:29;4.40;;;4.00;;
16731;SDS011;8484;50.904;9.192;2022-09-28T05:21:58;4.67;;;3.80;;
16731;SDS011;8484;50.904;9.192;2022-09-28T05:24:28;4.13;;;3.70;;
16731;SDS011;8484;50.904;9.192;2022-09-28T05:26:55;5.20;;;3.87;;
16731;SDS011;8484;50.904;9.192;2022-09-28T05:29:22;4.93;;;4.10;;
16731;SDS011;8484;50.904;9.192;2022-09-28T05:31:50;4.30;;;3.90;;
16731;SDS011;8484;50.904;9.192;2022-09-28T05:34:17;3.63;;;3.33;;
16731;SDS011;8484;50.904;9.192;2022-09-28T05:36:44;4.30;;;3.90;;
16731;SDS011;8484;50.904;9.192;2022-09-28T05:39:10;4.03;;;3.57;;
16731;SDS011;8484;50.904;9.192;2022-09-28T05:41:37;3.90;;;3.50;;
16731;SDS011;8484;50.904;9.192;2022-09-28T05:44:04;6.00;;;3.93;;
16731;SDS011;8484;50.904;9.192;2022-09-28T05:46:31;4.37;;;3.50;;
16731;SDS011;8484;50.904;9.192;2022-09-28T05:48:59;4.20;;;3.80;;
16731;SDS011;8484;50.904;9.192;2022-09-28T05:51:26;3.90;;;3.50;;
16731;SDS011;8484;50.904;9.192;2022-09-28T05:53:53;4.20;;;3.53;;
16731;SDS011;8484;50.904;9.192;2022-09-28T05:56:20;4.63;;;3.57;;
16731;SDS011;8484;50.904;9.192;2022-09-28T05:58:47;3.33;;;3.03;;
16731;SDS011;8484;50.904;9.192;2022-09-28T06:01:13;3.20;;;2.90;;
16731;SDS011;8484;50.904;9.192;2022-09-28T06:03:40;3.80;;;3.40;;
16731;SDS011;8484;50.904;9.192;2022-09-28T06:06:08;3.77;;;3.37;;
16731;SDS011;8484;50.904;9.192;2022-09-28T06:08:35;3.90;;;3.10;;
16731;SDS011;8484;50.904;9.192;2022-09-28T06:11:02;3.33;;;3.00;;
16731;SDS011;8484;50.904;9.192;2022-09-28T06:13:29;2.97;;;2.77;;
16731;SDS011;8484;50.904;9.192;2022-09-28T06:15:56;3.13;;;2.80;;
16731;SDS011;8484;50.904;9.192;2022-09-28T06:18:22;3.17;;;2.87;;
16731;SDS011;8484;50.904;9.192;2022-09-28T06:20:49;4.40;;;3.10;;
16731;SDS011;8484;50.904;9.192;2022-09-28T06:23:18;5.10;;;2.83;;
16731;SDS011;8484;50.904;9.192;2022-09-28T06:25:44;3.63;;;3.30;;
16731;SDS011;8484;50.904;9.192;2022-09-28T06:28:12;3.73;;;3.37;;
16731;SDS011;8484;50.904;9.192;2022-09-28T06:30:40;5.80;;;3.70;;
16731;SDS011;8484;50.904;9.192;2022-09-28T06:33:10;6.10;;;4.33;;
16731;SDS011;8484;50.904;9.192;2022-09-28T06:35:38;5.17;;;4.10;;
16731;SDS011;8484;50.904;9.192;2022-09-28T06:38:06;20.80;;;4.47;;
16731;SDS011;8484;50.904;9.192;2022-09-28T06:40:34;2.40;;;2.10;;
16731;SDS011;8484;50.904;9.192;2022-09-28T06:43:02;2.83;;;2.33;;
16731;SDS011;8484;50.904;9.192;2022-09-28T06:45:34;1.70;;;1.60;;
16731;SDS011;8484;50.904;9.192;2022-09-28T06:48:01;1.57;;;1.43;;
16731;SDS011;8484;50.904;9.192;2022-09-28T06:50:31;1.60;;;1.50;;
16731;SDS011;8484;50.904;9.192;2022-09-28T06:53:00;2.23;;;2.00;;
16731;SDS011;8484;50.904;9.192;2022-09-28T06:55:27;1.80;;;1.60;;
16731;SDS011;8484;50.904;9.192;2022-09-28T06:57:58;1.80;;;1.70;;
16731;SDS011;8484;50.904;9.192;2022-09-28T07:00:26;2.13;;;1.50;;
16731;SDS011;8484;50.904;9.192;2022-09-28T07:02:53;2.17;;;1.73;;
16731;SDS011;8484;50.904;9.192;2022-09-28T07:05:20;2.27;;;1.80;;
16731;SDS011;8484;50.904;9.192;2022-09-28T07:07:51;2.57;;;1.93;;
16731;SDS011;8484;50.904;9.192;2022-09-28T07:10:19;2.60;;;2.13;;
16731;SDS011;8484;50.904;9.192;2022-09-28T07:12:47;2.50;;;2.07;;
16731;SDS011;8484;50.904;9.192;2022-09-28T07:15:15;2.87;;;2.50;;
16731;SDS011;8484;50.904;9.192;2022-09-28T07:17:42;3.53;;;2.03;;
16731;SDS011;8484;50.904;9.192;2022-09-28T07:20:12;3.07;;;1.90;;
16731;SDS011;8484;50.904;9.192;2022-09-28T07:22:39;2.33;;;1.70;;
16731;SDS011;8484;50.904;9.192;2022-09-28T07:25:06;3.17;;;2.07;;
16731;SDS011;8484;50.904;9.192;2022-09-28T07:27:34;2.00;;;1.83;;
16731;SDS011;8484;50.904;9.192;2022-09-28T07:30:01;2.90;;;2.20;;
16731;SDS011;8484;50.904;9.192;2022-09-28T07:32:30;2.70;;;2.00;;
16731;SDS011;8484;50.904;9.192;2022-09-28T07:34:59;3.23;;;2.10;;
16731;SDS011;8484;50.904;9.192;2022-09-28T07:37:29;1.93;;;1.50;;
16731;SDS011;8484;50.904;9.192;2022-09-28T07:39:55;1.07;;;0.90;;
16731;SDS011;8484;50.904;9.192;2022-09-28T07:42:39;1.17;;;0.87;;
16731;SDS011;8484;50.904;9.192;2022-09-28T07:45:06;1.00;;;0.83;;
16731;SDS011;8484;50.904;9.192;2022-09-28T07:47:35;1.30;;;0.80;;
16731;SDS011;8484;50.904;9.192;2022-09-28T07:50:02;0.70;;;0.70;;
16731;SDS011;8484;50.904;9.192;2022-09-28T07:52:32;0.80;;;0.80;;
16731;SDS011;8484;50.904;9.192;2022-09-28T07:55:00;0.70;;;0.70;;
16731;SDS011;8484;50.904;9.192;2022-09-28T07:57:29;1.20;;;0.90;;
16731;SDS011;8484;50.904;9.192;2022-09-28T07:59:57;0.87;;;0.63;;
16731;SDS011;8484;50.904;9.192;2022-09-28T08:02:24;0.80;;;0.80;;
16731;SDS011;8484;50.904;9.192;2022-09-28T08:04:54;0.93;;;0.70;;
16731;SDS011;8484;50.904;9.192;2022-09-28T08:07:22;0.80;;;0.80;;
16731;SDS011;8484;50.904;9.192;2022-09-28T08:09:49;1.93;;;0.70;;
16731;SDS011;8484;50.904;9.192;2022-09-28T08:12:16;0.60;;;0.60;;
16731;SDS011;8484;50.904;9.192;2022-09-28T08:14:46;0.90;;;0.70;;
16731;SDS011;8484;50.904;9.192;2022-09-28T08:17:15;1.63;;;0.97;;
16731;SDS011;8484;50.904;9.192;2022-09-28T08:19:41;0.70;;;0.60;;
16731;SDS011;8484;50.904;9.192;2022-09-28T08:22:27;0.67;;;0.60;;
16731;SDS011;8484;50.904;9.192;2022-09-28T08:24:56;2.60;;;0.60;;
16731;SDS011;8484;50.904;9.192;2022-09-28T08:27:23;1.10;;;0.90;;
16731;SDS011;8484;50.904;9.192;2022-09-28T08:29:49;1.03;;;0.70;;
16731;SDS011;8484;50.904;9.192;2022-09-28T08:32:16;0.50;;;0.50;;
16731;SDS011;8484;50.904;9.192;2022-09-28T08:34:44;1.87;;;0.70;;
16731;SDS011;8484;50.904;9.192;2022-09-28T08:37:11;0.57;;;0.57;;
16731;SDS011;8484;50.904;9.192;2022-09-28T08:39:40;1.17;;;0.80;;
16731;SDS011;8484;50.904;9.192;2022-09-28T08:42:12;3.73;;;0.77;;
16731;SDS011;8484;50.904;9.192;2022-09-28T08:44:46;0.77;;;0.77;;
16731;SDS011;8484;50.904;9.192;2022-09-28T08:47:19;1.33;;;1.10;;
16731;SDS011;8484;50.904;9.192;2022-09-28T08:50:06;1.40;;;1.10;;
16731;SDS011;8484;50.904;9.192;2022-09-28T08:52:39;1.20;;;1.10;;
16731;SDS011;8484;50.904;9.192;2022-09-28T08:55:08;0.90;;;0.90;;
16731;SDS011;8484;50.904;9.192;2022-09-28T08:57:39;0.97;;;0.80;;
16731;SDS011;8484;50.904;9.192;2022-09-28T09:00:14;1.30;;;1.20;;
16731;SDS011;8484;50.904;9.192;2022-09-28T09:02:45;1.30;;;1.20;;
16731;SDS011;8484;50.904;9.192;2022-09-28T09:05:13;1.30;;;1.20;;
16731;SDS011;8484;50.904;9.192;2022-09-28T09:07:51;1.30;;;1.20;;
16731;SDS011;8484;50.904;9.192;2022-09-28T09:10:43;2.23;;;1.27;;
16731;SDS011;8484;50.904;9.192;2022-09-28T09:13:22;1.50;;;1.40;;
16731;SDS011;8484;50.904;9.192;2022-09-28T09:16:14;1.20;;;1.10;;
16731;SDS011;8484;50.904;9.192;2022-09-28T09:18:47;1.10;;;1.10;;
16731;SDS011;8484;50.904;9.192;2022-09-28T09:21:23;1.53;;;1.10;;
16731;SDS011;8484;50.904;9.192;2022-09-28T09:24:02;1.00;;;0.93;;
16731;SDS011;8484;50.904;9.192;2022-09-28T09:26:44;0.90;;;0.90;;
16731;SDS011;8484;50.904;9.192;2022-09-28T09:29:17;1.63;;;1.03;;
16731;SDS011;8484;50.904;9.192;2022-09-28T09:31:58;1.20;;;1.10;;
16731;SDS011;8484;50.904;9.192;2022-09-28T09:34:40;2.43;;;1.30;;
16731;SDS011;8484;50.904;9.192;2022-09-28T09:37:31;1.40;;;1.30;;
16731;SDS011;8484;50.904;9.192;2022-09-28T09:40:15;1.43;;;1.10;;
16731;SDS011;8484;50.904;9.192;2022-09-28T09:42:54;1.27;;;0.87;;
16731;SDS011;8484;50.904;9.192;2022-09-28T09:45:42;1.17;;;0.80;;
16731;SDS011;8484;50.904;9.192;2022-09-28T09:48:22;1.23;;;0.83;;
16731;SDS011;8484;50.904;9.192;2022-09-28T09:50:54;0.90;;;0.77;;
16731;SDS011;8484;50.904;9.192;2022-09-28T09:53:26;1.23;;;0.70;;
16731;SDS011;8484;50.904;9.192;2022-09-28T09:55:58;0.70;;;0.70;;
16731;SDS011;8484;50.904;9.192;2022-09-28T09:58:34;1.37;;;0.73;;
16731;SDS011;8484;50.904;9.192;2022-09-28T10:01:05;1.17;;;0.70;;
16731;SDS011;8484;50.904;9.192;2022-09-28T10:03:35;0.50;;;0.50;;
16731;SDS011;8484;50.904;9.192;2022-09-28T10:06:05;0.60;;;0.60;;
16731;SDS011;8484;50.904;9.192;2022-09-28T10:08:38;0.60;;;0.60;;
16731;SDS011;8484;50.904;9.192;2022-09-28T10:11:09;1.80;;;1.00;;
16731;SDS011;8484;50.904;9.192;2022-09-28T10:13:42;0.70;;;0.60;;
16731;SDS011;8484;50.904;9.192;2022-09-28T10:16:12;1.27;;;0.87;;
16731;SDS011;8484;50.904;9.192;2022-09-28T10:18:40;1.13;;;0.60;;
16731;SDS011;8484;50.904;9.192;2022-09-28T10:21:10;1.00;;;0.70;;
16731;SDS011;8484;50.904;9.192;2022-09-28T10:23:37;1.73;;;0.70;;
16731;SDS011;8484;50.904;9.192;2022-09-28T10:26:06;1.50;;;0.60;;
16731;SDS011;8484;50.904;9.192;2022-09-28T10:28:38;1.10;;;1.00;;
16731;SDS011;8484;50.904;9.192;2022-09-28T10:34:10;1.57;;;0.70;;
16731;SDS011;8484;50.904;9.192;2022-09-28T10:36:46;0.63;;;0.63;;
16731;SDS011;8484;50.904;9.192;2022-09-28T10:39:27;0.70;;;0.70;;
16731;SDS011;8484;50.904;9.192;2022-09-28T10:41:57;0.60;;;0.60;;
16731;SDS011;8484;50.904;9.192;2022-09-28T10:44:28;0.60;;;0.50;;
16731;SDS011;8484;50.904;9.192;2022-09-28T10:46:58;0.60;;;0.60;;
16731;SDS011;8484;50.904;9.192;2022-09-28T10:49:26;0.60;;;0.60;;
16731;SDS011;8484;50.904;9.192;2022-09-28T10:51:57;0.77;;;0.50;;
16731;SDS011;8484;50.904;9.192;2022-09-28T10:54:25;0.73;;;0.67;;
16731;SDS011;8484;50.904;9.192;2022-09-28T10:56:53;0.50;;;0.50;;
16731;SDS011;8484;50.904;9.192;2022-09-28T10:59:32;0.43;;;0.40;;
16731;SDS011;8484;50.904;9.192;2022-09-28T11:02:03;0.30;;;0.30;;
16731;SDS011;8484;50.904;9.192;2022-09-28T11:04:42;0.50;;;0.40;;
16731;SDS011;8484;50.904;9.192;2022-09-28T11:07:15;0.30;;;0.30;;
16731;SDS011;8484;50.904;9.192;2022-09-28T11:09:45;0.20;;;0.20;;
16731;SDS011;8484;50.904;9.192;2022-09-28T11:12:14;0.30;;;0.30;;
16731;SDS011;8484;50.904;9.192;2022-09-28T11:14:49;0.30;;;0.30;;
16731;SDS011;8484;50.904;9.192;2022-09-28T11:17:24;0.47;;;0.40;;
16731;SDS011;8484;50.904;9.192;2022-09-28T11:19:53;0.23;;;0.23;;
16731;SDS011;8484;50.904;9.192;2022-09-28T11:22:25;0.30;;;0.30;;
16731;SDS011;8484;50.904;9.192;2022-09-28T11:25:15;0.40;;;0.30;;
16731;SDS011;8484;50.904;9.192;2022-09-28T11:27:55;0.30;;;0.30;;
16731;SDS011;8484;50.904;9.192;2022-09-28T11:30:26;0.73;;;0.30;;
16731;SDS011;8484;50.904;9.192;2022-09-28T11:32:56;0.40;;;0.40;;
16731;SDS011;8484;50.904;9.192;2022-09-28T11:35:30;0.30;;;0.30;;
16731;SDS011;8484;50.904;9.192;2022-09-28T11:38:17;0.50;;;0.50;;
16731;SDS011;8484;50.904;9.192;2022-09-28T11:40:59;1.17;;;0.40;;
16731;SDS011;8484;50.904;9.192;2022-09-28T11:43:46;0.43;;;0.43;;
16731;SDS011;8484;50.904;9.192;2022-09-28T11:46:27;0.77;;;0.60;;
16731;SDS011;8484;50.904;9.192;2022-09-28T11:51:55;1.63;;;0.70;;
16731;SDS011;8484;50.904;9.192;2022-09-28T11:54:28;0.40;;;0.40;;
16731;SDS011;8484;50.904;9.192;2022-09-28T11:57:01;0.53;;;0.53;;
16731;SDS011;8484;50.904;9.192;2022-09-28T11:59:30;0.40;;;0.40;;
16731;SDS011;8484;50.904;9.192;2022-09-28T12:02:02;1.30;;;0.70;;
16731;SDS011;8484;50.904;9.192;2022-09-28T12:04:39;0.70;;;0.70;;
16731;SDS011;8484;50.904;9.192;2022-09-28T12:07:11;0.60;;;0.60;;
16731;SDS011;8484;50.904;9.192;2022-09-28T12:09:41;0.40;;;0.40;;
16731;SDS011;8484;50.904;9.192;2022-09-28T12:12:16;0.40;;;0.40;;
16731;SDS011;8484;50.904;9.192;2022-09-28T12:14:48;0.30;;;0.30;;
16731;SDS011;8484;50.904;9.192;2022-09-28T12:17:22;0.20;;;0.20;;
16731;SDS011;8484;50.904;9.192;2022-09-28T12:19:54;0.20;;;0.10;;
16731;SDS011;8484;50.904;9.192;2022-09-28T12:22:29;0.20;;;0.20;;
16731;SDS011;8484;50.904;9.192;2022-09-28T12:24:59;0.17;;;0.17;;
16731;SDS011;8484;50.904;9.192;2022-09-28T12:27:30;0.70;;;0.20;;
16731;SDS011;8484;50.904;9.192;2022-09-28T12:30:04;2.00;;;0.30;;
16731;SDS011;8484;50.904;9.192;2022-09-28T12:32:40;0.30;;;0.30;;
16731;SDS011;8484;50.904;9.192;2022-09-28T12:35:12;0.20;;;0.20;;
16731;SDS011;8484;50.904;9.192;2022-09-28T12:37:44;0.30;;;0.30;;
16731;SDS011;8484;50.904;9.192;2022-09-28T12:40:30;0.30;;;0.30;;
16731;SDS011;8484;50.904;9.192;2022-09-28T12:43:07;0.40;;;0.40;;
16731;SDS011;8484;50.904;9.192;2022-09-28T12:46:06;1.43;;;0.40;;
16731;SDS011;8484;50.904;9.192;2022-09-28T12:51:58;0.83;;;0.40;;
16731;SDS011;8484;50.904;9.192;2022-09-28T12:54:47;0.40;;;0.40;;
16731;SDS011;8484;50.904;9.192;2022-09-28T12:57:33;0.40;;;0.40;;
16731;SDS011;8484;50.904;9.192;2022-09-28T13:00:09;1.43;;;0.50;;
16731;SDS011;8484;50.904;9.192;2022-09-28T13:02:58;0.40;;;0.40;;
16731;SDS011;8484;50.904;9.192;2022-09-28T13:08:34;1.83;;;0.30;;
16731;SDS011;8484;50.904;9.192;2022-09-28T13:11:14;0.30;;;0.30;;
16731;SDS011;8484;50.904;9.192;2022-09-28T13:13:46;0.20;;;0.20;;
16731;SDS011;8484;50.904;9.192;2022-09-28T13:16:24;0.30;;;0.30;;
16731;SDS011;8484;50.904;9.192;2022-09-28T13:19:00;0.30;;;0.30;;
16731;SDS011;8484;50.904;9.192;2022-09-28T13:21:39;0.30;;;0.30;;
16731;SDS011;8484;50.904;9.192;2022-09-28T13:24:11;0.40;;;0.40;;
16731;SDS011;8484;50.904;9.192;2022-09-28T13:26:43;0.47;;;0.47;;
16731;SDS011;8484;50.904;9.192;2022-09-28T13:29:13;1.13;;;0.70;;
16731;SDS011;8484;50.904;9.192;2022-09-28T13:31:43;0.73;;;0.50;;
16731;SDS011;8484;50.904;9.192;2022-09-28T13:34:14;0.80;;;0.60;;
16731;SDS011;8484;50.904;9.192;2022-09-28T13:36:50;0.60;;;0.60;;
16731;SDS011;8484;50.904;9.192;2022-09-28T13:39:47;2.33;;;0.63;;
16731;SDS011;8484;50.904;9.192;2022-09-28T13:42:21;1.27;;;0.70;;
16731;SDS011;8484;50.904;9.192;2022-09-28T13:45:29;0.90;;;0.70;;
16731;SDS011;8484;50.904;9.192;2022-09-28T13:48:13;0.83;;;0.80;;
16731;SDS011;8484;50.904;9.192;2022-09-28T13:50:50;0.60;;;0.60;;
16731;SDS011;8484;50.904;9.192;2022-09-28T13:53:43;0.80;;;0.50;;
16731;SDS011;8484;50.904;9.192;2022-09-28T13:56:26;0.87;;;0.50;;
16731;SDS011;8484;50.904;9.192;2022-09-28T13:59:02;2.57;;;2.30;;
16731;SDS011;8484;50.904;9.192;2022-09-28T14:01:38;0.97;;;0.77;;
16731;SDS011;8484;50.904;9.192;2022-09-28T14:04:13;0.60;;;0.60;;
16731;SDS011;8484;50.904;9.192;2022-09-28T14:06:43;0.80;;;0.70;;
16731;SDS011;8484;50.904;9.192;2022-09-28T14:09:24;0.80;;;0.80;;
16731;SDS011;8484;50.904;9.192;2022-09-28T14:18:04;1.83;;;1.10;;
16731;SDS011;8484;50.904;9.192;2022-09-28T14:20:38;1.30;;;1.20;;
16731;SDS011;8484;50.904;9.192;2022-09-28T14:23:18;2.30;;;1.40;;
16731;SDS011;8484;50.904;9.192;2022-09-28T14:29:19;1.57;;;1.47;;
16731;SDS011;8484;50.904;9.192;2022-09-28T14:31:53;1.73;;;1.57;;
16731;SDS011;8484;50.904;9.192;2022-09-28T14:34:23;2.00;;;1.63;;
16731;SDS011;8484;50.904;9.192;2022-09-28T14:36:55;1.63;;;1.50;;
16731;SDS011;8484;50.904;9.192;2022-09-28T14:39:41;2.07;;;1.40;;
16731;SDS011;8484;50.904;9.192;2022-09-28T14:42:29;1.67;;;1.57;;
16731;SDS011;8484;50.904;9.192;2022-09-28T14:48:18;1.57;;;1.47;;
16731;SDS011;8484;50.904;9.192;2022-09-28T14:50:47;2.33;;;1.50;;
16731;SDS011;8484;50.904;9.192;2022-09-28T14:53:18;1.60;;;1.50;;
16731;SDS011;8484;50.904;9.192;2022-09-28T14:55:49;1.50;;;1.37;;
16731;SDS011;8484;50.904;9.192;2022-09-28T14:58:22;2.00;;;1.20;;
16731;SDS011;8484;50.904;9.192;2022-09-28T15:00:56;1.37;;;1.20;;
16731;SDS011;8484;50.904;9.192;2022-09-28T15:03:28;1.50;;;1.40;;
16731;SDS011;8484;50.904;9.192;2022-09-28T15:05:57;2.47;;;1.80;;
16731;SDS011;8484;50.904;9.192;2022-09-28T15:08:34;3.47;;;1.57;;
16731;SDS011;8484;50.904;9.192;2022-09-28T15:11:02;1.90;;;1.70;;
16731;SDS011;8484;50.904;9.192;2022-09-28T15:13:30;1.83;;;1.70;;
16731;SDS011;8484;50.904;9.192;2022-09-28T15:15:58;1.63;;;1.53;;
16731;SDS011;8484;50.904;9.192;2022-09-28T15:21:31;1.83;;;1.67;;
16731;SDS011;8484;50.904;9.192;2022-09-28T15:24:01;1.50;;;1.40;;
16731;SDS011;8484;50.904;9.192;2022-09-28T15:26:29;2.53;;;1.70;;
16731;SDS011;8484;50.904;9.192;2022-09-28T15:28:59;2.10;;;1.63;;
16731;SDS011;8484;50.904;9.192;2022-09-28T15:31:29;1.60;;;1.50;;
16731;SDS011;8484;50.904;9.192;2022-09-28T15:34:00;1.50;;;1.40;;
16731;SDS011;8484;50.904;9.192;2022-09-28T15:36:44;1.40;;;1.30;;
16731;SDS011;8484;50.904;9.192;2022-09-28T15:39:13;1.57;;;1.47;;
16731;SDS011;8484;50.904;9.192;2022-09-28T15:41:44;1.63;;;1.53;;
16731;SDS011;8484;50.904;9.192;2022-09-28T15:44:19;1.40;;;1.30;;
16731;SDS011;8484;50.904;9.192;2022-09-28T15:47:02;1.70;;;1.50;;
16731;SDS011;8484;50.904;9.192;2022-09-28T15:49:36;1.53;;;1.43;;
16731;SDS011;8484;50.904;9.192;2022-09-28T15:52:16;1.53;;;1.43;;
16731;SDS011;8484;50.904;9.192;2022-09-28T15:54:55;1.40;;;1.30;;
16731;SDS011;8484;50.904;9.192;2022-09-28T15:57:29;1.53;;;1.40;;
16731;SDS011;8484;50.904;9.192;2022-09-28T16:00:00;1.50;;;1.40;;
16731;SDS011;8484;50.904;9.192;2022-09-28T16:02:29;1.40;;;1.30;;